Terminal Aerodrome Forecast
Issued by NWS Lake Charles, LA

Current Version | Previous Version | Text Only | Print | Product List | Glossary On
Versions: 1 2 3 4 5 6 7 8 9 10 11 12 13 14 15 16 17 18 19
000
FTUS44 KLCH 011122
TAFARA
TAF
KARA 011122Z 0112/0212 VRB05KT P6SM FEW025 BKN250
      TEMPO 0112/0114 5SM BR
     FM011500 VRB06KT P6SM VCSH SCT035 BKN250
      TEMPO 0119/0123 5SM -TSRA SCT025 BKN040CB
     FM020100 VRB03KT P6SM FEW040 BKN250=

USA.gov is the U.S. government's official web portal to all federal, state and local government web resources and services.